sensor_id;sensor_type;location;lat;lon;timestamp;P1;durP1;ratioP1;P2;durP2;ratioP2
65187;SDS011;51775;51.148;6.950;2023-09-07T00:00:33;1.98;;;1.30;;
65187;SDS011;51775;51.148;6.950;2023-09-07T00:02:58;1.73;;;1.30;;
65187;SDS011;51775;51.148;6.950;2023-09-07T00:05:24;2.38;;;1.30;;
65187;SDS011;51775;51.148;6.950;2023-09-07T00:07:49;2.00;;;1.20;;
65187;SDS011;51775;51.148;6.950;2023-09-07T00:10:14;1.92;;;1.30;;
65187;SDS011;51775;51.148;6.950;2023-09-07T00:12:40;2.10;;;1.30;;
65187;SDS011;51775;51.148;6.950;2023-09-07T00:15:05;1.58;;;1.15;;
65187;SDS011;51775;51.148;6.950;2023-09-07T00:17:31;1.75;;;1.25;;
65187;SDS011;51775;51.148;6.950;2023-09-07T00:19:56;2.47;;;1.42;;
65187;SDS011;51775;51.148;6.950;2023-09-07T00:22:21;1.90;;;1.30;;
65187;SDS011;51775;51.148;6.950;2023-09-07T00:24:47;2.00;;;1.40;;
65187;SDS011;51775;51.148;6.950;2023-09-07T00:27:12;1.75;;;1.30;;
65187;SDS011;51775;51.148;6.950;2023-09-07T00:29:38;2.00;;;1.30;;
65187;SDS011;51775;51.148;6.950;2023-09-07T00:32:04;1.73;;;1.20;;
65187;SDS011;51775;51.148;6.950;2023-09-07T00:34:29;1.90;;;1.30;;
65187;SDS011;51775;51.148;6.950;2023-09-07T00:36:56;2.00;;;1.40;;
65187;SDS011;51775;51.148;6.950;2023-09-07T00:39:21;1.90;;;1.30;;
65187;SDS011;51775;51.148;6.950;2023-09-07T00:41:47;1.90;;;1.40;;
65187;SDS011;51775;51.148;6.950;2023-09-07T00:44:12;2.13;;;1.45;;
65187;SDS011;51775;51.148;6.950;2023-09-07T00:46:37;1.60;;;1.20;;
65187;SDS011;51775;51.148;6.950;2023-09-07T00:49:03;2.17;;;1.48;;
65187;SDS011;51775;51.148;6.950;2023-09-07T00:51:28;2.17;;;1.40;;
65187;SDS011;51775;51.148;6.950;2023-09-07T00:53:53;2.28;;;1.27;;
65187;SDS011;51775;51.148;6.950;2023-09-07T00:56:19;1.88;;;1.45;;
65187;SDS011;51775;51.148;6.950;2023-09-07T00:58:44;1.90;;;1.30;;
65187;SDS011;51775;51.148;6.950;2023-09-07T01:01:10;2.67;;;1.40;;
65187;SDS011;51775;51.148;6.950;2023-09-07T01:03:35;1.92;;;1.40;;
65187;SDS011;51775;51.148;6.950;2023-09-07T01:06:12;2.13;;;1.38;;
65187;SDS011;51775;51.148;6.950;2023-09-07T01:08:48;2.10;;;1.40;;
65187;SDS011;51775;51.148;6.950;2023-09-07T01:11:16;1.92;;;1.40;;
65187;SDS011;51775;51.148;6.950;2023-09-07T01:13:43;2.00;;;1.40;;
65187;SDS011;51775;51.148;6.950;2023-09-07T01:16:09;1.83;;;1.38;;
65187;SDS011;51775;51.148;6.950;2023-09-07T01:18:35;2.20;;;1.52;;
65187;SDS011;51775;51.148;6.950;2023-09-07T01:21:02;1.95;;;1.40;;
65187;SDS011;51775;51.148;6.950;2023-09-07T01:23:27;2.20;;;1.40;;
65187;SDS011;51775;51.148;6.950;2023-09-07T01:25:53;2.00;;;1.30;;
65187;SDS011;51775;51.148;6.950;2023-09-07T01:28:19;2.13;;;1.42;;
65187;SDS011;51775;51.148;6.950;2023-09-07T01:30:45;2.13;;;1.40;;
65187;SDS011;51775;51.148;6.950;2023-09-07T01:33:10;2.40;;;1.50;;
65187;SDS011;51775;51.148;6.950;2023-09-07T01:35:35;2.33;;;1.40;;
65187;SDS011;51775;51.148;6.950;2023-09-07T01:38:02;2.25;;;1.50;;
65187;SDS011;51775;51.148;6.950;2023-09-07T01:40:28;2.15;;;1.40;;
65187;SDS011;51775;51.148;6.950;2023-09-07T01:42:53;2.10;;;1.40;;
65187;SDS011;51775;51.148;6.950;2023-09-07T01:45:18;2.53;;;1.60;;
65187;SDS011;51775;51.148;6.950;2023-09-07T01:47:44;2.28;;;1.40;;
65187;SDS011;51775;51.148;6.950;2023-09-07T01:50:09;2.65;;;1.30;;
65187;SDS011;51775;51.148;6.950;2023-09-07T01:52:34;2.03;;;1.40;;
65187;SDS011;51775;51.148;6.950;2023-09-07T01:55:00;2.70;;;1.50;;
65187;SDS011;51775;51.148;6.950;2023-09-07T01:57:25;2.05;;;1.35;;
65187;SDS011;51775;51.148;6.950;2023-09-07T01:59:50;2.40;;;1.50;;
65187;SDS011;51775;51.148;6.950;2023-09-07T02:02:15;2.13;;;1.42;;
65187;SDS011;51775;51.148;6.950;2023-09-07T02:04:41;2.17;;;1.40;;
65187;SDS011;51775;51.148;6.950;2023-09-07T02:07:06;2.20;;;1.50;;
65187;SDS011;51775;51.148;6.950;2023-09-07T02:09:31;2.00;;;1.50;;
65187;SDS011;51775;51.148;6.950;2023-09-07T02:11:57;1.92;;;1.40;;
65187;SDS011;51775;51.148;6.950;2023-09-07T02:14:22;2.30;;;1.40;;
65187;SDS011;51775;51.148;6.950;2023-09-07T02:16:47;2.30;;;1.50;;
65187;SDS011;51775;51.148;6.950;2023-09-07T02:19:12;2.20;;;1.60;;
65187;SDS011;51775;51.148;6.950;2023-09-07T02:21:38;2.38;;;1.60;;
65187;SDS011;51775;51.148;6.950;2023-09-07T02:24:03;2.40;;;1.50;;
65187;SDS011;51775;51.148;6.950;2023-09-07T02:26:29;2.30;;;1.52;;
65187;SDS011;51775;51.148;6.950;2023-09-07T02:28:54;2.22;;;1.60;;
65187;SDS011;51775;51.148;6.950;2023-09-07T02:31:20;2.10;;;1.45;;
65187;SDS011;51775;51.148;6.950;2023-09-07T02:33:45;2.10;;;1.40;;
65187;SDS011;51775;51.148;6.950;2023-09-07T02:36:10;2.10;;;1.50;;
65187;SDS011;51775;51.148;6.950;2023-09-07T02:38:36;2.65;;;1.48;;
65187;SDS011;51775;51.148;6.950;2023-09-07T02:41:01;2.50;;;1.50;;
65187;SDS011;51775;51.148;6.950;2023-09-07T02:43:26;2.40;;;1.40;;
65187;SDS011;51775;51.148;6.950;2023-09-07T02:45:52;2.20;;;1.50;;
65187;SDS011;51775;51.148;6.950;2023-09-07T02:48:17;2.25;;;1.40;;
65187;SDS011;51775;51.148;6.950;2023-09-07T02:50:42;2.58;;;1.60;;
65187;SDS011;51775;51.148;6.950;2023-09-07T02:53:08;2.13;;;1.48;;
65187;SDS011;51775;51.148;6.950;2023-09-07T02:55:33;2.80;;;1.55;;
65187;SDS011;51775;51.148;6.950;2023-09-07T02:57:59;1.95;;;1.50;;
65187;SDS011;51775;51.148;6.950;2023-09-07T03:00:24;2.35;;;1.60;;
65187;SDS011;51775;51.148;6.950;2023-09-07T03:02:49;1.80;;;1.40;;
65187;SDS011;51775;51.148;6.950;2023-09-07T03:05:15;2.10;;;1.50;;
65187;SDS011;51775;51.148;6.950;2023-09-07T03:07:41;2.15;;;1.50;;
65187;SDS011;51775;51.148;6.950;2023-09-07T03:10:06;1.98;;;1.40;;
65187;SDS011;51775;51.148;6.950;2023-09-07T03:12:32;2.28;;;1.52;;
65187;SDS011;51775;51.148;6.950;2023-09-07T03:14:57;2.40;;;1.80;;
65187;SDS011;51775;51.148;6.950;2023-09-07T03:17:22;2.22;;;1.60;;
65187;SDS011;51775;51.148;6.950;2023-09-07T03:19:47;2.33;;;1.60;;
65187;SDS011;51775;51.148;6.950;2023-09-07T03:22:13;1.70;;;1.30;;
65187;SDS011;51775;51.148;6.950;2023-09-07T03:24:38;2.08;;;1.50;;
65187;SDS011;51775;51.148;6.950;2023-09-07T03:27:04;2.20;;;1.50;;
65187;SDS011;51775;51.148;6.950;2023-09-07T03:29:30;2.10;;;1.40;;
65187;SDS011;51775;51.148;6.950;2023-09-07T03:31:55;2.53;;;1.60;;
65187;SDS011;51775;51.148;6.950;2023-09-07T03:34:20;2.10;;;1.45;;
65187;SDS011;51775;51.148;6.950;2023-09-07T03:36:46;2.88;;;1.80;;
65187;SDS011;51775;51.148;6.950;2023-09-07T03:39:11;2.30;;;1.70;;
65187;SDS011;51775;51.148;6.950;2023-09-07T03:41:36;2.42;;;1.60;;
65187;SDS011;51775;51.148;6.950;2023-09-07T03:44:02;2.10;;;1.40;;
65187;SDS011;51775;51.148;6.950;2023-09-07T03:46:27;2.35;;;1.60;;
65187;SDS011;51775;51.148;6.950;2023-09-07T03:48:52;2.10;;;1.58;;
65187;SDS011;51775;51.148;6.950;2023-09-07T03:51:18;2.38;;;1.67;;
65187;SDS011;51775;51.148;6.950;2023-09-07T03:53:43;2.15;;;1.55;;
65187;SDS011;51775;51.148;6.950;2023-09-07T03:56:08;3.38;;;1.80;;
65187;SDS011;51775;51.148;6.950;2023-09-07T03:58:34;2.25;;;1.50;;
65187;SDS011;51775;51.148;6.950;2023-09-07T04:00:59;2.55;;;1.60;;
65187;SDS011;51775;51.148;6.950;2023-09-07T04:03:25;2.20;;;1.50;;
65187;SDS011;51775;51.148;6.950;2023-09-07T04:05:50;2.38;;;1.58;;
65187;SDS011;51775;51.148;6.950;2023-09-07T04:08:16;2.00;;;1.40;;
65187;SDS011;51775;51.148;6.950;2023-09-07T04:10:41;2.92;;;1.58;;
65187;SDS011;51775;51.148;6.950;2023-09-07T04:13:06;1.98;;;1.50;;
65187;SDS011;51775;51.148;6.950;2023-09-07T04:15:33;2.13;;;1.60;;
65187;SDS011;51775;51.148;6.950;2023-09-07T04:17:59;2.17;;;1.40;;
65187;SDS011;51775;51.148;6.950;2023-09-07T04:20:24;2.22;;;1.50;;
65187;SDS011;51775;51.148;6.950;2023-09-07T04:22:49;2.10;;;1.40;;
65187;SDS011;51775;51.148;6.950;2023-09-07T04:25:14;2.05;;;1.40;;
65187;SDS011;51775;51.148;6.950;2023-09-07T04:27:40;1.95;;;1.40;;
65187;SDS011;51775;51.148;6.950;2023-09-07T04:30:05;2.92;;;1.50;;
65187;SDS011;51775;51.148;6.950;2023-09-07T04:32:31;2.75;;;1.70;;
65187;SDS011;51775;51.148;6.950;2023-09-07T04:34:57;2.08;;;1.48;;
65187;SDS011;51775;51.148;6.950;2023-09-07T04:37:22;2.10;;;1.50;;
65187;SDS011;51775;51.148;6.950;2023-09-07T04:39:50;2.30;;;1.67;;
65187;SDS011;51775;51.148;6.950;2023-09-07T04:42:16;2.40;;;1.60;;
65187;SDS011;51775;51.148;6.950;2023-09-07T04:44:41;3.42;;;1.90;;
65187;SDS011;51775;51.148;6.950;2023-09-07T04:47:06;1.92;;;1.40;;
65187;SDS011;51775;51.148;6.950;2023-09-07T04:49:32;2.20;;;1.58;;
65187;SDS011;51775;51.148;6.950;2023-09-07T04:51:57;2.45;;;1.70;;
65187;SDS011;51775;51.148;6.950;2023-09-07T04:54:22;2.50;;;1.75;;
65187;SDS011;51775;51.148;6.950;2023-09-07T04:56:47;2.55;;;1.70;;
65187;SDS011;51775;51.148;6.950;2023-09-07T04:59:13;2.35;;;1.67;;
65187;SDS011;51775;51.148;6.950;2023-09-07T05:01:41;2.05;;;1.50;;
65187;SDS011;51775;51.148;6.950;2023-09-07T05:04:06;2.20;;;1.60;;
65187;SDS011;51775;51.148;6.950;2023-09-07T05:06:31;2.15;;;1.45;;
65187;SDS011;51775;51.148;6.950;2023-09-07T05:08:57;2.25;;;1.40;;
65187;SDS011;51775;51.148;6.950;2023-09-07T05:11:22;2.30;;;1.70;;
65187;SDS011;51775;51.148;6.950;2023-09-07T05:13:48;2.47;;;1.70;;
65187;SDS011;51775;51.148;6.950;2023-09-07T05:16:13;2.00;;;1.40;;
65187;SDS011;51775;51.148;6.950;2023-09-07T05:18:40;2.63;;;1.60;;
65187;SDS011;51775;51.148;6.950;2023-09-07T05:21:15;2.30;;;1.60;;
65187;SDS011;51775;51.148;6.950;2023-09-07T05:23:41;3.05;;;1.75;;
65187;SDS011;51775;51.148;6.950;2023-09-07T05:26:07;2.13;;;1.63;;
65187;SDS011;51775;51.148;6.950;2023-09-07T05:28:32;2.47;;;1.60;;
65187;SDS011;51775;51.148;6.950;2023-09-07T05:30:57;2.33;;;1.60;;
65187;SDS011;51775;51.148;6.950;2023-09-07T05:33:22;2.22;;;1.58;;
65187;SDS011;51775;51.148;6.950;2023-09-07T05:35:48;2.20;;;1.60;;
65187;SDS011;51775;51.148;6.950;2023-09-07T05:38:13;2.47;;;1.60;;
65187;SDS011;51775;51.148;6.950;2023-09-07T05:40:39;2.50;;;1.55;;
65187;SDS011;51775;51.148;6.950;2023-09-07T05:43:06;2.28;;;1.60;;
65187;SDS011;51775;51.148;6.950;2023-09-07T05:45:34;2.58;;;1.88;;
65187;SDS011;51775;51.148;6.950;2023-09-07T05:48:00;2.17;;;1.50;;
65187;SDS011;51775;51.148;6.950;2023-09-07T05:50:26;2.28;;;1.60;;
65187;SDS011;51775;51.148;6.950;2023-09-07T05:52:51;2.30;;;1.70;;
65187;SDS011;51775;51.148;6.950;2023-09-07T05:55:16;2.20;;;1.50;;
65187;SDS011;51775;51.148;6.950;2023-09-07T05:57:42;2.33;;;1.60;;
65187;SDS011;51775;51.148;6.950;2023-09-07T06:00:07;2.20;;;1.60;;
65187;SDS011;51775;51.148;6.950;2023-09-07T06:02:33;2.10;;;1.60;;
65187;SDS011;51775;51.148;6.950;2023-09-07T06:04:58;2.25;;;1.50;;
65187;SDS011;51775;51.148;6.950;2023-09-07T06:07:23;2.58;;;1.60;;
65187;SDS011;51775;51.148;6.950;2023-09-07T06:09:49;2.33;;;1.60;;
65187;SDS011;51775;51.148;6.950;2023-09-07T06:12:14;2.50;;;1.70;;
65187;SDS011;51775;51.148;6.950;2023-09-07T06:14:39;2.60;;;1.80;;
65187;SDS011;51775;51.148;6.950;2023-09-07T06:17:05;2.30;;;1.63;;
65187;SDS011;51775;51.148;6.950;2023-09-07T06:19:31;2.42;;;1.75;;
65187;SDS011;51775;51.148;6.950;2023-09-07T06:21:56;2.13;;;1.67;;
65187;SDS011;51775;51.148;6.950;2023-09-07T06:24:21;2.47;;;1.77;;
65187;SDS011;51775;51.148;6.950;2023-09-07T06:26:47;2.90;;;1.60;;
65187;SDS011;51775;51.148;6.950;2023-09-07T06:29:12;2.30;;;1.65;;
65187;SDS011;51775;51.148;6.950;2023-09-07T06:31:37;2.40;;;1.67;;
65187;SDS011;51775;51.148;6.950;2023-09-07T06:34:02;2.40;;;1.60;;
65187;SDS011;51775;51.148;6.950;2023-09-07T06:36:29;3.28;;;1.90;;
65187;SDS011;51775;51.148;6.950;2023-09-07T06:38:55;2.20;;;1.60;;
65187;SDS011;51775;51.148;6.950;2023-09-07T06:41:20;2.33;;;1.70;;
65187;SDS011;51775;51.148;6.950;2023-09-07T06:43:45;2.58;;;1.80;;
65187;SDS011;51775;51.148;6.950;2023-09-07T06:46:10;2.33;;;1.70;;
65187;SDS011;51775;51.148;6.950;2023-09-07T06:48:36;2.55;;;1.70;;
65187;SDS011;51775;51.148;6.950;2023-09-07T06:51:02;2.70;;;1.80;;
65187;SDS011;51775;51.148;6.950;2023-09-07T06:53:27;2.53;;;1.70;;
65187;SDS011;51775;51.148;6.950;2023-09-07T06:56:02;2.90;;;1.60;;
65187;SDS011;51775;51.148;6.950;2023-09-07T07:01:00;2.53;;;1.70;;
65187;SDS011;51775;51.148;6.950;2023-09-07T07:03:26;2.03;;;1.55;;
65187;SDS011;51775;51.148;6.950;2023-09-07T07:05:54;2.30;;;1.60;;
65187;SDS011;51775;51.148;6.950;2023-09-07T07:08:20;2.63;;;1.80;;
65187;SDS011;51775;51.148;6.950;2023-09-07T07:10:45;2.40;;;1.70;;
65187;SDS011;51775;51.148;6.950;2023-09-07T07:13:10;2.50;;;1.80;;
65187;SDS011;51775;51.148;6.950;2023-09-07T07:15:36;2.45;;;1.70;;
65187;SDS011;51775;51.148;6.950;2023-09-07T07:18:01;2.33;;;1.70;;
65187;SDS011;51775;51.148;6.950;2023-09-07T07:20:27;2.20;;;1.60;;
65187;SDS011;51775;51.148;6.950;2023-09-07T07:22:52;2.20;;;1.60;;
65187;SDS011;51775;51.148;6.950;2023-09-07T07:25:17;2.78;;;1.80;;
65187;SDS011;51775;51.148;6.950;2023-09-07T07:27:42;2.35;;;1.67;;
65187;SDS011;51775;51.148;6.950;2023-09-07T07:30:08;2.80;;;1.90;;
65187;SDS011;51775;51.148;6.950;2023-09-07T07:32:34;2.58;;;1.60;;
65187;SDS011;51775;51.148;6.950;2023-09-07T07:34:59;2.20;;;1.60;;
65187;SDS011;51775;51.148;6.950;2023-09-07T07:37:25;2.63;;;1.70;;
65187;SDS011;51775;51.148;6.950;2023-09-07T07:39:50;2.80;;;1.80;;
65187;SDS011;51775;51.148;6.950;2023-09-07T07:42:15;2.75;;;1.80;;
65187;SDS011;51775;51.148;6.950;2023-09-07T07:44:42;2.22;;;1.60;;
65187;SDS011;51775;51.148;6.950;2023-09-07T07:47:07;3.22;;;1.70;;
65187;SDS011;51775;51.148;6.950;2023-09-07T07:49:32;2.75;;;1.88;;
65187;SDS011;51775;51.148;6.950;2023-09-07T07:51:58;2.75;;;1.70;;
65187;SDS011;51775;51.148;6.950;2023-09-07T07:54:23;2.28;;;1.67;;
65187;SDS011;51775;51.148;6.950;2023-09-07T07:56:48;2.35;;;1.80;;
65187;SDS011;51775;51.148;6.950;2023-09-07T07:59:14;2.55;;;1.50;;
65187;SDS011;51775;51.148;6.950;2023-09-07T08:01:39;2.50;;;1.80;;
65187;SDS011;51775;51.148;6.950;2023-09-07T08:04:04;2.28;;;1.50;;
65187;SDS011;51775;51.148;6.950;2023-09-07T08:06:29;2.25;;;1.55;;
65187;SDS011;51775;51.148;6.950;2023-09-07T08:08:55;2.92;;;1.70;;
65187;SDS011;51775;51.148;6.950;2023-09-07T08:11:20;2.30;;;1.75;;
65187;SDS011;51775;51.148;6.950;2023-09-07T08:13:45;2.55;;;1.80;;
65187;SDS011;51775;51.148;6.950;2023-09-07T08:16:11;2.47;;;1.70;;
65187;SDS011;51775;51.148;6.950;2023-09-07T08:18:36;2.15;;;1.60;;
65187;SDS011;51775;51.148;6.950;2023-09-07T08:21:01;2.28;;;1.60;;
65187;SDS011;51775;51.148;6.950;2023-09-07T08:23:26;2.20;;;1.55;;
65187;SDS011;51775;51.148;6.950;2023-09-07T08:25:52;2.47;;;1.63;;
65187;SDS011;51775;51.148;6.950;2023-09-07T08:28:17;1.95;;;1.55;;
65187;SDS011;51775;51.148;6.950;2023-09-07T08:30:43;2.72;;;1.60;;
65187;SDS011;51775;51.148;6.950;2023-09-07T08:33:08;2.88;;;1.58;;
65187;SDS011;51775;51.148;6.950;2023-09-07T08:35:34;2.50;;;1.70;;
65187;SDS011;51775;51.148;6.950;2023-09-07T08:37:59;2.70;;;1.60;;
65187;SDS011;51775;51.148;6.950;2023-09-07T08:40:25;2.08;;;1.55;;
65187;SDS011;51775;51.148;6.950;2023-09-07T08:42:51;2.63;;;1.80;;
65187;SDS011;51775;51.148;6.950;2023-09-07T08:45:16;2.00;;;1.50;;
65187;SDS011;51775;51.148;6.950;2023-09-07T08:47:46;2.10;;;1.55;;
65187;SDS011;51775;51.148;6.950;2023-09-07T08:50:13;2.10;;;1.50;;
65187;SDS011;51775;51.148;6.950;2023-09-07T08:52:40;2.63;;;1.60;;
65187;SDS011;51775;51.148;6.950;2023-09-07T08:55:06;2.22;;;1.55;;
65187;SDS011;51775;51.148;6.950;2023-09-07T08:57:31;2.28;;;1.70;;
65187;SDS011;51775;51.148;6.950;2023-09-07T08:59:57;2.00;;;1.50;;
65187;SDS011;51775;51.148;6.950;2023-09-07T09:02:22;1.90;;;1.30;;
65187;SDS011;51775;51.148;6.950;2023-09-07T09:04:48;2.20;;;1.60;;
65187;SDS011;51775;51.148;6.950;2023-09-07T09:07:13;2.10;;;1.60;;
65187;SDS011;51775;51.148;6.950;2023-09-07T09:09:38;2.30;;;1.65;;
65187;SDS011;51775;51.148;6.950;2023-09-07T09:12:07;2.40;;;1.60;;
65187;SDS011;51775;51.148;6.950;2023-09-07T09:14:34;1.83;;;1.40;;
65187;SDS011;51775;51.148;6.950;2023-09-07T09:16:59;2.83;;;1.60;;
65187;SDS011;51775;51.148;6.950;2023-09-07T09:19:31;2.08;;;1.50;;
65187;SDS011;51775;51.148;6.950;2023-09-07T09:21:59;2.35;;;1.50;;
65187;SDS011;51775;51.148;6.950;2023-09-07T09:24:25;1.90;;;1.50;;
65187;SDS011;51775;51.148;6.950;2023-09-07T09:26:51;3.67;;;1.40;;
65187;SDS011;51775;51.148;6.950;2023-09-07T09:29:21;2.30;;;1.60;;
65187;SDS011;51775;51.148;6.950;2023-09-07T09:31:47;2.45;;;1.60;;
65187;SDS011;51775;51.148;6.950;2023-09-07T09:34:12;3.30;;;1.63;;
65187;SDS011;51775;51.148;6.950;2023-09-07T09:36:37;2.20;;;1.60;;
65187;SDS011;51775;51.148;6.950;2023-09-07T09:39:06;2.20;;;1.50;;
65187;SDS011;51775;51.148;6.950;2023-09-07T09:41:32;2.10;;;1.40;;
65187;SDS011;51775;51.148;6.950;2023-09-07T09:43:58;2.95;;;1.60;;
65187;SDS011;51775;51.148;6.950;2023-09-07T09:46:23;2.13;;;1.60;;
65187;SDS011;51775;51.148;6.950;2023-09-07T09:48:49;2.10;;;1.50;;
65187;SDS011;51775;51.148;6.950;2023-09-07T09:51:16;2.22;;;1.50;;
65187;SDS011;51775;51.148;6.950;2023-09-07T09:53:43;1.92;;;1.40;;
65187;SDS011;51775;51.148;6.950;2023-09-07T09:56:09;2.08;;;1.48;;
65187;SDS011;51775;51.148;6.950;2023-09-07T09:58:35;1.92;;;1.40;;
65187;SDS011;51775;51.148;6.950;2023-09-07T10:01:00;2.28;;;1.40;;
65187;SDS011;51775;51.148;6.950;2023-09-07T10:03:33;2.17;;;1.50;;
65187;SDS011;51775;51.148;6.950;2023-09-07T10:06:09;2.08;;;1.45;;
65187;SDS011;51775;51.148;6.950;2023-09-07T10:08:35;2.25;;;1.48;;
65187;SDS011;51775;51.148;6.950;2023-09-07T10:11:06;2.15;;;1.40;;
65187;SDS011;51775;51.148;6.950;2023-09-07T10:13:32;2.42;;;1.60;;
65187;SDS011;51775;51.148;6.950;2023-09-07T10:16:01;2.25;;;1.52;;
65187;SDS011;51775;51.148;6.950;2023-09-07T10:18:34;1.90;;;1.50;;
65187;SDS011;51775;51.148;6.950;2023-09-07T10:21:00;2.65;;;1.50;;
65187;SDS011;51775;51.148;6.950;2023-09-07T10:26:16;2.00;;;1.52;;
65187;SDS011;51775;51.148;6.950;2023-09-07T10:28:43;1.85;;;1.40;;
65187;SDS011;51775;51.148;6.950;2023-09-07T10:31:15;2.10;;;1.50;;
65187;SDS011;51775;51.148;6.950;2023-09-07T10:33:45;2.20;;;1.50;;
65187;SDS011;51775;51.148;6.950;2023-09-07T10:36:26;2.13;;;1.42;;
65187;SDS011;51775;51.148;6.950;2023-09-07T10:38:53;2.10;;;1.23;;
65187;SDS011;51775;51.148;6.950;2023-09-07T10:41:20;2.15;;;1.55;;
65187;SDS011;51775;51.148;6.950;2023-09-07T10:43:50;2.10;;;1.55;;
65187;SDS011;51775;51.148;6.950;2023-09-07T10:46:19;2.08;;;1.50;;
65187;SDS011;51775;51.148;6.950;2023-09-07T10:48:48;2.00;;;1.40;;
65187;SDS011;51775;51.148;6.950;2023-09-07T10:51:20;1.80;;;1.33;;
65187;SDS011;51775;51.148;6.950;2023-09-07T10:53:45;2.10;;;1.45;;
65187;SDS011;51775;51.148;6.950;2023-09-07T10:56:11;1.98;;;1.35;;
65187;SDS011;51775;51.148;6.950;2023-09-07T10:58:36;2.05;;;1.50;;
65187;SDS011;51775;51.148;6.950;2023-09-07T11:01:02;2.25;;;1.50;;
65187;SDS011;51775;51.148;6.950;2023-09-07T11:03:28;2.05;;;1.40;;
65187;SDS011;51775;51.148;6.950;2023-09-07T11:05:56;1.88;;;1.30;;
65187;SDS011;51775;51.148;6.950;2023-09-07T11:08:27;1.88;;;1.33;;
65187;SDS011;51775;51.148;6.950;2023-09-07T11:10:56;2.20;;;1.50;;
65187;SDS011;51775;51.148;6.950;2023-09-07T11:13:24;1.90;;;1.40;;
65187;SDS011;51775;51.148;6.950;2023-09-07T11:15:54;1.90;;;1.40;;
65187;SDS011;51775;51.148;6.950;2023-09-07T11:18:21;2.05;;;1.40;;
65187;SDS011;51775;51.148;6.950;2023-09-07T11:20:47;2.13;;;1.40;;
65187;SDS011;51775;51.148;6.950;2023-09-07T11:23:13;2.22;;;1.45;;
65187;SDS011;51775;51.148;6.950;2023-09-07T11:25:39;1.85;;;1.40;;
65187;SDS011;51775;51.148;6.950;2023-09-07T11:28:05;2.13;;;1.50;;
65187;SDS011;51775;51.148;6.950;2023-09-07T11:30:31;1.90;;;1.40;;
65187;SDS011;51775;51.148;6.950;2023-09-07T11:33:06;2.10;;;1.58;;
65187;SDS011;51775;51.148;6.950;2023-09-07T11:35:33;2.08;;;1.50;;
65187;SDS011;51775;51.148;6.950;2023-09-07T11:37:59;2.00;;;1.40;;
65187;SDS011;51775;51.148;6.950;2023-09-07T11:40:25;2.08;;;1.40;;
65187;SDS011;51775;51.148;6.950;2023-09-07T11:42:50;1.77;;;1.27;;
65187;SDS011;51775;51.148;6.950;2023-09-07T11:45:16;1.90;;;1.30;;
65187;SDS011;51775;51.148;6.950;2023-09-07T11:47:41;1.95;;;1.30;;
65187;SDS011;51775;51.148;6.950;2023-09-07T11:50:06;1.88;;;1.42;;
65187;SDS011;51775;51.148;6.950;2023-09-07T11:52:32;1.90;;;1.30;;
65187;SDS011;51775;51.148;6.950;2023-09-07T11:54:57;1.90;;;1.30;;
65187;SDS011;51775;51.148;6.950;2023-09-07T11:57:23;1.98;;;1.38;;
65187;SDS011;51775;51.148;6.950;2023-09-07T11:59:48;1.80;;;1.30;;
65187;SDS011;51775;51.148;6.950;2023-09-07T12:02:13;1.73;;;1.15;;
65187;SDS011;51775;51.148;6.950;2023-09-07T12:04:39;1.88;;;1.40;;
65187;SDS011;51775;51.148;6.950;2023-09-07T12:07:04;1.80;;;1.30;;
65187;SDS011;51775;51.148;6.950;2023-09-07T12:09:29;1.90;;;1.30;;
65187;SDS011;51775;51.148;6.950;2023-09-07T12:11:54;1.90;;;1.30;;
65187;SDS011;51775;51.148;6.950;2023-09-07T12:14:20;1.92;;;1.30;;
65187;SDS011;51775;51.148;6.950;2023-09-07T12:16:45;1.85;;;1.30;;
65187;SDS011;51775;51.148;6.950;2023-09-07T12:19:10;2.25;;;1.30;;
65187;SDS011;51775;51.148;6.950;2023-09-07T12:21:35;1.90;;;1.30;;
65187;SDS011;51775;51.148;6.950;2023-09-07T12:24:01;1.60;;;1.20;;
65187;SDS011;51775;51.148;6.950;2023-09-07T12:26:26;1.88;;;1.40;;
65187;SDS011;51775;51.148;6.950;2023-09-07T12:28:51;2.10;;;1.52;;
65187;SDS011;51775;51.148;6.950;2023-09-07T12:31:17;1.73;;;1.20;;
65187;SDS011;51775;51.148;6.950;2023-09-07T12:33:42;1.75;;;1.30;;
65187;SDS011;51775;51.148;6.950;2023-09-07T12:36:07;1.70;;;1.30;;
65187;SDS011;51775;51.148;6.950;2023-09-07T12:38:32;1.80;;;1.30;;
65187;SDS011;51775;51.148;6.950;2023-09-07T12:40:58;2.20;;;1.40;;
65187;SDS011;51775;51.148;6.950;2023-09-07T12:43:23;1.75;;;1.13;;
65187;SDS011;51775;51.148;6.950;2023-09-07T12:45:48;1.80;;;1.30;;
65187;SDS011;51775;51.148;6.950;2023-09-07T12:48:14;1.35;;;1.10;;
65187;SDS011;51775;51.148;6.950;2023-09-07T12:50:39;1.52;;;1.20;;
65187;SDS011;51775;51.148;6.950;2023-09-07T12:53:04;1.80;;;1.30;;
65187;SDS011;51775;51.148;6.950;2023-09-07T12:55:30;1.90;;;1.33;;
65187;SDS011;51775;51.148;6.950;2023-09-07T12:57:55;1.83;;;1.40;;
65187;SDS011;51775;51.148;6.950;2023-09-07T13:00:20;1.70;;;1.20;;
65187;SDS011;51775;51.148;6.950;2023-09-07T13:02:46;1.80;;;1.30;;
65187;SDS011;51775;51.148;6.950;2023-09-07T13:05:11;2.13;;;1.38;;
65187;SDS011;51775;51.148;6.950;2023-09-07T13:07:36;2.13;;;1.33;;
65187;SDS011;51775;51.148;6.950;2023-09-07T13:10:02;1.80;;;1.17;;
65187;SDS011;51775;51.148;6.950;2023-09-07T13:12:27;1.77;;;1.40;;
65187;SDS011;51775;51.148;6.950;2023-09-07T13:14:53;2.13;;;1.38;;
65187;SDS011;51775;51.148;6.950;2023-09-07T13:17:18;1.73;;;1.30;;
65187;SDS011;51775;51.148;6.950;2023-09-07T13:19:43;1.83;;;1.30;;
65187;SDS011;51775;51.148;6.950;2023-09-07T13:22:09;1.73;;;1.23;;
65187;SDS011;51775;51.148;6.950;2023-09-07T13:24:35;1.98;;;1.30;;
65187;SDS011;51775;51.148;6.950;2023-09-07T13:27:00;1.98;;;1.35;;
65187;SDS011;51775;51.148;6.950;2023-09-07T13:29:25;1.88;;;1.17;;
65187;SDS011;51775;51.148;6.950;2023-09-07T13:31:51;2.08;;;1.40;;
65187;SDS011;51775;51.148;6.950;2023-09-07T13:34:16;1.60;;;1.20;;
65187;SDS011;51775;51.148;6.950;2023-09-07T13:36:41;1.73;;;1.17;;
65187;SDS011;51775;51.148;6.950;2023-09-07T13:39:06;1.60;;;1.10;;
65187;SDS011;51775;51.148;6.950;2023-09-07T13:41:32;1.63;;;1.10;;
65187;SDS011;51775;51.148;6.950;2023-09-07T13:43:57;1.73;;;1.30;;
65187;SDS011;51775;51.148;6.950;2023-09-07T13:46:22;1.80;;;1.30;;
65187;SDS011;51775;51.148;6.950;2023-09-07T13:48:47;1.98;;;1.30;;
65187;SDS011;51775;51.148;6.950;2023-09-07T13:51:13;1.85;;;1.30;;
65187;SDS011;51775;51.148;6.950;2023-09-07T13:53:38;1.92;;;1.40;;
65187;SDS011;51775;51.148;6.950;2023-09-07T13:56:03;1.80;;;1.23;;
65187;SDS011;51775;51.148;6.950;2023-09-07T13:58:29;1.70;;;1.30;;
65187;SDS011;51775;51.148;6.950;2023-09-07T14:00:54;1.60;;;1.20;;
65187;SDS011;51775;51.148;6.950;2023-09-07T14:03:19;1.70;;;1.20;;
65187;SDS011;51775;51.148;6.950;2023-09-07T14:05:44;2.00;;;1.40;;
65187;SDS011;51775;51.148;6.950;2023-09-07T14:08:10;1.75;;;1.20;;
65187;SDS011;51775;51.148;6.950;2023-09-07T14:10:35;1.60;;;1.17;;
65187;SDS011;51775;51.148;6.950;2023-09-07T14:13:00;1.70;;;1.20;;
65187;SDS011;51775;51.148;6.950;2023-09-07T14:15:26;1.70;;;1.15;;
65187;SDS011;51775;51.148;6.950;2023-09-07T14:17:51;1.90;;;1.30;;
65187;SDS011;51775;51.148;6.950;2023-09-07T14:20:16;1.67;;;1.20;;
65187;SDS011;51775;51.148;6.950;2023-09-07T14:22:42;1.50;;;1.00;;
65187;SDS011;51775;51.148;6.950;2023-09-07T14:25:07;1.95;;;1.30;;
65187;SDS011;51775;51.148;6.950;2023-09-07T14:27:32;1.60;;;1.20;;
65187;SDS011;51775;51.148;6.950;2023-09-07T14:29:58;1.58;;;1.10;;
65187;SDS011;51775;51.148;6.950;2023-09-07T14:32:23;1.60;;;1.20;;
65187;SDS011;51775;51.148;6.950;2023-09-07T14:34:48;1.50;;;1.13;;
65187;SDS011;51775;51.148;6.950;2023-09-07T14:37:14;1.92;;;1.30;;
65187;SDS011;51775;51.148;6.950;2023-09-07T14:39:39;1.80;;;1.20;;
65187;SDS011;51775;51.148;6.950;2023-09-07T14:42:04;1.85;;;1.20;;
65187;SDS011;51775;51.148;6.950;2023-09-07T14:44:30;1.80;;;1.27;;